Time;durP1;ratioP1;P1;durP2;ratioP2;P2;SDS_P1;SDS_P2;PMS_P1;PMS_P2;Temp;Humidity;BMP_temperature;BMP_pressure;BME280_temperature;BME280_humidity;BME280_pressure;Samples;Min_cycle;Max_cycle;Signal;HPM_P1;HPM_P2
2022/10/06 00:02:18;;;;;;;3.85;2.47;;;;;;;;;;5109603;28;20019;-86
2022/10/06 00:04:44;;;;;;;3.67;1.80;;;;;;;;;;5111939;28;20051;-88
2022/10/06 00:07:10;;;;;;;4.28;2.17;;;;;;;;;;5112828;28;20093;-87
2022/10/06 00:09:36;;;;;;;2.55;1.73;;;;;;;;;;5113715;28;20042;-88
2022/10/06 00:12:02;;;;;;;4.65;1.95;;;;;;;;;;5112188;28;20103;-89
2022/10/06 00:14:28;;;;;;;3.30;2.20;;;;;;;;;;5113220;28;20051;-86
2022/10/06 00:16:54;;;;;;;6.93;2.35;;;;;;;;;;5111433;28;20415;-79
2022/10/06 00:19:20;;;;;;;5.28;2.28;;;;;;;;;;5106005;28;20043;-86
2022/10/06 00:21:46;;;;;;;3.88;2.35;;;;;;;;;;5093572;28;20020;-86
2022/10/06 00:24:12;;;;;;;5.88;2.40;;;;;;;;;;5112510;28;20020;-87
2022/10/06 00:26:38;;;;;;;3.95;2.10;;;;;;;;;;5113034;28;20119;-87
2022/10/06 00:29:04;;;;;;;5.10;2.20;;;;;;;;;;5112709;28;20035;-85
2022/10/06 00:31:30;;;;;;;3.10;1.92;;;;;;;;;;5112739;28;20027;-83
2022/10/06 00:33:56;;;;;;;5.38;2.05;;;;;;;;;;5112661;28;20099;-86
2022/10/06 00:36:22;;;;;;;3.33;1.90;;;;;;;;;;5108654;28;20388;-86
2022/10/06 00:38:48;;;;;;;5.45;2.10;;;;;;;;;;5112996;28;20108;-86
2022/10/06 00:41:15;;;;;;;3.85;2.30;;;;;;;;;;5111887;28;20035;-87
2022/10/06 00:43:52;;;;;;;2.67;1.95;;;;;;;;;;5112432;28;20495;-86
2022/10/06 00:46:56;;;;;;;2.70;2.20;;;;;;;;;;5087123;28;20464;-86
2022/10/06 00:49:36;;;;;;;6.28;2.00;;;;;;;;;;5042813;28;20199;-85
2022/10/06 00:52:07;;;;;;;2.70;2.10;;;;;;;;;;5038365;28;20065;-87
2022/10/06 00:54:34;;;;;;;4.28;2.15;;;;;;;;;;5042210;28;20039;-84
2022/10/06 00:57:01;;;;;;;5.18;2.47;;;;;;;;;;5046219;28;20022;-84
2022/10/06 00:59:26;;;;;;;4.63;2.78;;;;;;;;;;5045435;28;20516;-85
2022/10/06 01:02:11;;;;;;;3.75;2.45;;;;;;;;;;5046314;28;20029;-77
2022/10/06 01:04:40;;;;;;;3.38;2.00;;;;;;;;;;5049253;28;20513;-84
2022/10/06 01:07:06;;;;;;;4.47;1.90;;;;;;;;;;5047963;28;20072;-80
2022/10/06 01:09:33;;;;;;;2.85;1.95;;;;;;;;;;5038002;28;20029;-84
2022/10/06 01:12:00;;;;;;;3.88;2.33;;;;;;;;;;5046593;28;20025;-84
2022/10/06 01:14:26;;;;;;;3.92;2.05;;;;;;;;;;5049395;28;20025;-85
2022/10/06 01:16:58;;;;;;;3.25;2.40;;;;;;;;;;5048867;28;20186;-77
2022/10/06 01:19:43;;;;;;;4.30;2.17;;;;;;;;;;5060445;28;20394;-84
2022/10/06 01:22:10;;;;;;;3.90;2.20;;;;;;;;;;5110956;28;20028;-84
2022/10/06 01:24:36;;;;;;;5.15;2.70;;;13.50;99.90;;;;;;5110009;28;20031;-84
2022/10/06 01:27:04;;;;;;;5.38;2.58;;;13.50;99.90;;;;;;5099412;28;20415;-85
2022/10/06 01:29:34;;;;;;;6.47;3.25;;;13.40;99.90;;;;;;5106568;28;20043;-83
2022/10/06 01:32:00;;;;;;;2.60;2.20;;;13.30;99.90;;;;;;5111744;28;20028;-84
2022/10/06 01:34:27;;;;;;;7.40;2.95;;;13.30;99.90;;;;;;5112328;28;20376;-84
2022/10/06 01:36:52;;;;;;;4.97;2.95;;;13.20;99.90;;;;;;5111948;28;20023;-77
2022/10/06 01:39:18;;;;;;;7.95;3.05;;;13.10;99.90;;;;;;5112709;28;20058;-85
2022/10/06 01:41:46;;;;;;;5.15;2.72;;;13.10;99.90;;;;;;5100933;28;20102;-85
2022/10/06 01:44:12;;;;;;;10.13;2.58;;;13.10;99.90;;;;;;5101395;28;20042;-85
2022/10/06 01:46:38;;;;;;;4.45;2.92;;;13.00;99.90;;;;;;5095345;28;20403;-85
2022/10/06 01:49:03;;;;;;;3.05;2.38;;;12.90;99.90;;;;;;5104333;28;20100;-85
2022/10/06 01:51:29;;;;;;;3.22;2.05;;;12.90;99.90;;;;;;5096876;28;20027;-85
2022/10/06 01:53:55;;;;;;;3.78;2.80;;;12.80;99.90;;;;;;5108227;28;20031;-85
2022/10/06 01:56:20;;;;;;;4.97;2.55;;;12.80;99.90;;;;;;5099414;28;20031;-85
2022/10/06 01:58:47;;;;;;;4.82;3.10;;;12.70;99.90;;;;;;5096897;28;20029;-83
2022/10/06 02:01:13;;;;;;;3.58;2.50;;;12.60;99.90;;;;;;5079827;28;20019;-86
2022/10/06 02:03:39;;;;;;;3.80;2.83;;;12.50;99.90;;;;;;5104945;28;20016;-86
2022/10/06 02:06:05;;;;;;;3.38;2.55;;;12.40;99.90;;;;;;5098028;28;20035;-86
2022/10/06 02:08:31;;;;;;;7.57;3.00;;;12.40;99.90;;;;;;5103376;28;20031;-86
2022/10/06 02:10:57;;;;;;;5.13;2.53;;;12.30;99.90;;;;;;5109831;28;20016;-84
2022/10/06 02:13:27;;;;;;;6.20;3.05;;;12.30;99.90;;;;;;5109881;28;20023;-86
2022/10/06 02:15:58;;;;;;;7.60;3.43;;;12.30;99.90;;;;;;5105538;28;20070;-79
2022/10/06 02:18:24;;;;;;;5.53;2.95;;;12.30;99.90;;;;;;5113661;28;20084;-85
2022/10/06 02:20:50;;;;;;;6.22;2.85;;;12.20;99.90;;;;;;5106405;28;20032;-78
2022/10/06 02:23:16;;;;;;;5.88;3.03;;;12.20;99.90;;;;;;5109559;28;20538;-84
2022/10/06 02:25:41;;;;;;;4.55;2.88;;;12.20;99.90;;;;;;5112819;28;20061;-86
2022/10/06 02:28:07;;;;;;;5.03;2.63;;;12.20;99.90;;;;;;5114598;28;20080;-85
2022/10/06 02:30:34;;;;;;;5.65;3.67;;;12.20;99.90;;;;;;5093833;28;20036;-84
2022/10/06 02:32:59;;;;;;;4.53;2.70;;;12.20;99.90;;;;;;5113602;28;20019;-85
2022/10/06 02:35:25;;;;;;;4.47;2.67;;;12.20;99.90;;;;;;5114321;28;20487;-85
2022/10/06 02:37:51;;;;;;;4.32;2.70;;;12.30;99.90;;;;;;5114922;28;20035;-77
2022/10/06 02:40:16;;;;;;;6.32;2.80;;;12.30;99.90;;;;;;5113626;28;20441;-85
2022/10/06 02:42:42;;;;;;;3.83;2.80;;;12.30;99.90;;;;;;5114376;28;20041;-85
2022/10/06 02:45:08;;;;;;;4.65;2.70;;;12.30;99.90;;;;;;5113462;28;20031;-86
2022/10/06 02:47:37;;;;;;;5.78;2.85;;;12.30;99.90;;;;;;5111104;28;20042;-85
2022/10/06 02:50:05;;;;;;;3.67;2.90;;;12.40;99.90;;;;;;5113603;28;20042;-84
2022/10/06 02:52:33;;;;;;;5.35;2.63;;;12.50;99.90;;;;;;5114715;28;20502;-84
2022/10/06 02:54:59;;;;;;;3.97;2.55;;;12.60;99.90;;;;;;5113451;28;20036;-85
2022/10/06 02:57:26;;;;;;;9.75;3.47;;;12.60;99.90;;;;;;5113939;28;20055;-85
2022/10/06 02:59:51;;;;;;;4.45;2.15;;;12.60;99.90;;;;;;5113237;28;20031;-79
2022/10/06 03:02:17;;;;;;;4.32;2.30;;;12.60;99.90;;;;;;5095470;28;20023;-85
2022/10/06 03:04:42;;;;;;;7.03;2.78;;;12.60;99.90;;;;;;5111512;28;20384;-85
2022/10/06 03:07:08;;;;;;;6.35;2.38;;;12.60;99.90;;;;;;5112778;28;20028;-85
2022/10/06 03:09:34;;;;;;;3.47;2.78;;;12.60;99.90;;;;;;5114205;28;20032;-86
2022/10/06 03:12:00;;;;;;;3.33;2.65;;;12.60;99.90;;;;;;5113242;28;20041;-85
2022/10/06 03:14:25;;;;;;;5.82;2.60;;;12.70;99.90;;;;;;5114351;28;20035;-85
2022/10/06 03:16:51;;;;;;;4.38;2.20;;;12.70;99.90;;;;;;5113096;28;20027;-77
2022/10/06 03:19:16;;;;;;;7.82;2.63;;;12.60;99.90;;;;;;5121046;28;20028;-85
2022/10/06 03:21:43;;;;;;;5.72;2.60;;;12.60;99.90;;;;;;5124310;28;20027;-86
2022/10/06 03:24:09;;;;;;;5.20;2.50;;;12.50;99.90;;;;;;5122229;28;20039;-85
2022/10/06 03:26:43;;;;;;;3.58;2.38;;;12.40;99.90;;;;;;5119178;28;20024;-85
2022/10/06 03:29:09;;;;;;;6.85;3.17;;;12.30;99.90;;;;;;5102097;28;20039;-84
2022/10/06 03:31:35;;;;;;;4.95;3.03;;;12.30;99.90;;;;;;5101705;28;20050;-84
2022/10/06 03:34:02;;;;;;;4.20;3.13;;;12.30;99.90;;;;;;5118582;28;20031;-86
2022/10/06 03:36:31;;;;;;;3.10;2.45;;;12.30;99.90;;;;;;5112191;28;20380;-82
2022/10/06 03:38:57;;;;;;;5.47;2.78;;;12.20;99.90;;;;;;5106847;28;20039;-82
2022/10/06 03:41:25;;;;;;;3.85;2.45;;;12.20;99.90;;;;;;5114349;28;20111;-84
2022/10/06 03:43:53;;;;;;;3.80;2.95;;;12.20;99.90;;;;;;5114264;28;20055;-76
2022/10/06 03:46:22;;;;;;;4.65;3.55;;;12.30;99.90;;;;;;5113331;28;20022;-85
2022/10/06 03:48:49;;;;;;;4.50;2.90;;;12.30;99.90;;;;;;5113432;28;20069;-84
2022/10/06 03:51:16;;;;;;;9.05;3.67;;;12.40;99.90;;;;;;5112627;28;20042;-85
2022/10/06 03:53:47;;;;;;;4.70;2.65;;;12.40;99.90;;;;;;5109749;28;20032;-85
2022/10/06 03:56:18;;;;;;;5.20;2.80;;;12.50;99.90;;;;;;5112123;28;20068;-86
2022/10/06 03:58:46;;;;;;;3.47;2.78;;;12.50;99.90;;;;;;5113807;28;20028;-85
2022/10/06 04:01:18;;;;;;;4.25;3.00;;;12.50;99.90;;;;;;5112302;28;20080;-86
2022/10/06 04:03:44;;;;;;;5.50;3.17;;;12.50;99.90;;;;;;5095543;28;20030;-87
2022/10/06 04:06:17;;;;;;;6.50;3.30;;;12.60;99.90;;;;;;5112744;28;20027;-85
2022/10/06 04:08:45;;;;;;;7.45;2.92;;;12.60;99.90;;;;;;5091791;28;20380;-85
2022/10/06 04:11:14;;;;;;;4.50;2.70;;;12.60;99.90;;;;;;5108517;28;20034;-86
2022/10/06 04:13:41;;;;;;;3.70;2.75;;;12.70;99.90;;;;;;5113753;28;20031;-85
2022/10/06 04:16:21;;;;;;;3.38;3.00;;;12.70;99.90;;;;;;5112073;28;20027;-86
2022/10/06 04:18:55;;;;;;;5.10;3.13;;;12.70;99.90;;;;;;5114247;28;20067;-86
2022/10/06 04:21:22;;;;;;;8.52;3.65;;;12.70;99.90;;;;;;5116982;28;20100;-86
2022/10/06 04:23:48;;;;;;;3.55;2.85;;;12.70;99.90;;;;;;5117687;28;20065;-87
2022/10/06 04:26:19;;;;;;;4.20;2.83;;;12.70;99.90;;;;;;5105424;28;20624;-86
2022/10/06 04:28:45;;;;;;;9.00;2.65;;;12.70;99.90;;;;;;5112480;28;20028;-86
2022/10/06 04:31:15;;;;;;;3.72;2.72;;;12.80;99.90;;;;;;5111832;28;20070;-87
2022/10/06 04:33:42;;;;;;;3.85;2.70;;;12.80;99.90;;;;;;5113271;28;20068;-87
2022/10/06 04:36:09;;;;;;;5.00;2.88;;;12.80;99.90;;;;;;5093686;28;20028;-86
2022/10/06 04:38:35;;;;;;;7.78;3.17;;;12.90;99.90;;;;;;5112612;28;20031;-87
2022/10/06 04:41:10;;;;;;;4.35;3.25;;;12.90;99.90;;;;;;5110892;28;20545;-86
2022/10/06 04:43:36;;;;;;;4.75;3.08;;;12.90;99.90;;;;;;5109755;28;20384;-87
2022/10/06 04:46:03;;;;;;;7.60;3.40;;;13.00;99.90;;;;;;5111009;28;20035;-86
2022/10/06 04:48:29;;;;;;;4.35;3.28;;;13.00;99.90;;;;;;5112285;28;20043;-83
2022/10/06 04:50:57;;;;;;;3.40;2.70;;;13.00;99.90;;;;;;5103838;28;20111;-83
2022/10/06 04:53:23;;;;;;;5.63;3.10;;;13.10;99.90;;;;;;5105778;28;20023;-86
2022/10/06 04:56:10;;;;;;;5.95;2.88;;;13.10;99.90;;;;;;5106107;28;20016;-86
2022/10/06 04:58:38;;;;;;;6.80;2.60;;;13.20;99.90;;;;;;5103854;28;20106;-80
2022/10/06 05:01:19;;;;;;;4.20;2.70;;;13.30;99.90;;;;;;5105632;28;20111;-90
2022/10/06 05:03:45;;;;;;;6.10;2.80;;;13.40;99.90;;;;;;5108483;28;20051;-78
2022/10/06 05:06:13;;;;;;;6.55;2.63;;;13.40;99.90;;;;;;5108024;28;20606;-86
2022/10/06 05:08:39;;;;;;;7.13;2.70;;;13.40;99.90;;;;;;5115615;28;20026;-87
2022/10/06 05:11:08;;;;;;;13.57;4.10;;;13.50;99.90;;;;;;5116470;28;20027;-86
2022/10/06 05:13:35;;;;;;;5.97;4.38;;;13.50;99.90;;;;;;5114018;28;20024;-87
2022/10/06 05:16:03;;;;;;;7.07;3.83;;;13.60;99.90;;;;;;5107518;28;20132;-87
2022/10/06 05:18:30;;;;;;;4.80;3.63;;;13.50;99.90;;;;;;5109972;28;20027;-85
2022/10/06 05:21:02;;;;;;;9.80;3.75;;;13.50;99.90;;;;;;5111590;28;20024;-85
2022/10/06 05:23:28;;;;;;;9.40;4.07;;;13.50;99.90;;;;;;5122203;27;20058;-85
2022/10/06 05:25:56;;;;;;;5.53;3.72;;;13.40;99.90;;;;;;5123990;27;20051;-79
2022/10/06 05:28:23;;;;;;;6.38;3.75;;;13.40;99.90;;;;;;5110109;27;20406;-81
2022/10/06 05:30:58;;;;;;;5.82;3.63;;;13.40;99.90;;;;;;5113994;27;20396;-79
2022/10/06 05:33:26;;;;;;;7.45;3.15;;;13.50;99.90;;;;;;5109355;28;20456;-88
2022/10/06 05:35:54;;;;;;;8.30;3.78;;;13.50;99.90;;;;;;5115268;28;20110;-79
2022/10/06 05:38:21;;;;;;;6.05;3.30;;;13.50;99.90;;;;;;5122404;28;20031;-85
2022/10/06 05:40:47;;;;;;;4.88;2.95;;;13.60;99.90;;;;;;5105425;28;20032;-87
2022/10/06 05:43:12;;;;;;;7.95;3.53;;;13.70;99.90;;;;;;5115740;28;20027;-86
2022/10/06 05:45:38;;;;;;;6.63;2.97;;;13.80;99.90;;;;;;5115566;28;20452;-84
2022/10/06 05:48:03;;;;;;;17.83;5.50;;;13.80;99.90;;;;;;5112388;28;20537;-75
2022/10/06 05:50:29;;;;;;;12.55;4.85;;;13.90;99.90;;;;;;5114252;28;20055;-87
2022/10/06 05:52:55;;;;;;;7.22;3.83;;;14.00;99.90;;;;;;5115364;28;20046;-83
2022/10/06 05:55:20;;;;;;;8.48;4.25;;;14.00;99.90;;;;;;5115232;28;20032;-77
2022/10/06 05:57:46;;;;;;;6.50;3.72;;;13.80;99.90;;;;;;5116150;28;20024;-79
2022/10/06 06:00:12;;;;;;;8.75;4.10;;;13.70;99.90;;;;;;5116572;28;20526;-78
2022/10/06 06:02:37;;;;;;;4.90;3.85;;;13.60;99.90;;;;;;5115260;28;20058;-80
2022/10/06 06:05:03;;;;;;;5.53;3.47;;;13.50;99.90;;;;;;5112232;28;20028;-78
2022/10/06 06:07:34;;;;;;;9.50;4.30;;;13.50;99.90;;;;;;5106985;28;20024;-85
2022/10/06 06:10:00;;;;;;;11.13;4.43;;;13.50;99.90;;;;;;5112904;28;20394;-84
2022/10/06 06:12:25;;;;;;;7.13;4.43;;;13.50;99.90;;;;;;5110946;27;20016;-82
2022/10/06 06:17:35;;;;;;;9.05;4.95;;;13.50;99.90;;;;;;5114781;28;20051;-84
2022/10/06 06:20:01;;;;;;;9.48;4.78;;;13.60;99.90;;;;;;5109734;28;20451;-75
2022/10/06 06:22:27;;;;;;;8.57;4.55;;;13.60;99.90;;;;;;5112227;28;20027;-76
2022/10/06 06:24:52;;;;;;;10.75;4.70;;;13.70;99.90;;;;;;5110853;28;20027;-79
2022/10/06 06:27:19;;;;;;;9.10;4.85;;;13.70;99.90;;;;;;5111066;28;20565;-83
2022/10/06 06:29:44;;;;;;;10.80;5.28;;;13.70;99.90;;;;;;5112105;28;20388;-83
2022/10/06 06:32:10;;;;;;;7.53;4.47;;;13.70;99.90;;;;;;5112439;28;20035;-81
2022/10/06 06:34:35;;;;;;;6.25;4.43;;;13.70;99.90;;;;;;5110511;28;20034;-78
2022/10/06 06:37:02;;;;;;;9.85;5.00;;;13.70;99.90;;;;;;5090490;28;20127;-77
2022/10/06 06:39:27;;;;;;;12.52;5.15;;;13.70;99.90;;;;;;5114425;28;20023;-75
2022/10/06 06:41:54;;;;;;;8.93;5.13;;;13.80;99.90;;;;;;5111569;28;20027;-77
2022/10/06 06:44:20;;;;;;;7.15;4.30;;;13.90;99.90;;;;;;5113525;28;20035;-76
2022/10/06 06:46:48;;;;;;;7.53;4.47;;;13.90;99.90;;;;;;5110013;28;20512;-82
2022/10/06 06:49:15;;;;;;;11.15;5.10;;;14.00;99.90;;;;;;5111203;28;20614;-79
2022/10/06 06:51:43;;;;;;;8.38;4.88;;;14.10;99.90;;;;;;5104572;28;20024;-80
2022/10/06 06:54:11;;;;;;;8.35;4.10;;;14.20;99.90;;;;;;5101729;28;20115;-80
2022/10/06 06:56:37;;;;;;;5.22;3.75;;;14.40;99.90;;;;;;5108239;28;20027;-80
2022/10/06 06:59:09;;;;;;;7.35;3.67;;;14.50;99.90;;;;;;5106923;28;20061;-80
2022/10/06 07:01:35;;;;;;;6.88;4.35;;;14.60;99.90;;;;;;5112794;28;20095;-77
2022/10/06 07:04:02;;;;;;;4.75;3.47;;;14.80;99.90;;;;;;5112770;28;20469;-79
2022/10/06 07:06:29;;;;;;;9.52;4.03;;;14.90;99.90;;;;;;5113475;28;20028;-78
2022/10/06 07:08:59;;;;;;;5.10;3.25;;;15.10;99.90;;;;;;5104310;28;20030;-74
2022/10/06 07:11:33;;;;;;;10.05;3.72;;;15.20;99.90;;;;;;5112885;28;20047;-77
2022/10/06 07:14:01;;;;;;;9.38;3.60;;;15.40;99.90;;;;;;5112152;28;20034;-79
2022/10/06 07:25:07;;;;;;;9.20;2.90;;;16.00;99.90;;;;;;5103488;28;20078;-76
2022/10/06 07:27:35;;;;;;;5.82;2.35;;;16.10;99.90;;;;;;5113030;28;20034;-77
2022/10/06 07:30:02;;;;;;;9.57;2.42;;;16.20;99.90;;;;;;5111562;28;20031;-77
2022/10/06 07:32:30;;;;;;;3.67;2.13;;;16.20;99.90;;;;;;5112744;28;20396;-78
2022/10/06 07:34:59;;;;;;;5.82;3.05;;;16.20;99.90;;;;;;5094458;28;20032;-74
2022/10/06 07:37:27;;;;;;;6.10;3.15;;;16.30;99.90;;;;;;5112975;28;20019;-79
2022/10/06 07:39:53;;;;;;;5.57;2.50;;;16.30;99.90;;;;;;5109886;28;20985;-73
2022/10/06 07:42:19;;;;;;;5.75;2.75;;;16.40;99.90;;;;;;5102444;28;20107;-79
2022/10/06 07:47:32;;;;;;;5.35;2.13;;;16.60;99.90;;;;;;5058583;28;20072;-77
2022/10/06 07:49:58;;;;;;;2.97;2.10;;;16.60;99.90;;;;;;5110480;28;20434;-78
2022/10/06 07:52:24;;;;;;;5.80;2.00;;;16.70;99.90;;;;;;5112412;28;20103;-78
2022/10/06 07:54:50;;;;;;;3.25;2.00;;;16.70;99.90;;;;;;5112455;28;20036;-76
2022/10/06 07:57:15;;;;;;;5.22;1.90;;;16.80;99.90;;;;;;5110787;28;20016;-78
2022/10/06 07:59:41;;;;;;;4.90;1.80;;;16.90;99.90;;;;;;5112602;28;20468;-79
2022/10/06 08:02:07;;;;;;;8.60;1.80;;;17.00;99.90;;;;;;5110991;28;20028;-79
2022/10/06 08:04:32;;;;;;;7.32;2.30;;;17.10;99.90;;;;;;5109115;28;20032;-79
2022/10/06 08:06:58;;;;;;;5.43;1.70;;;17.10;99.90;;;;;;5108044;28;20087;-78
2022/10/06 08:09:23;;;;;;;5.68;2.05;;;17.30;99.90;;;;;;5114411;28;20093;-79
2022/10/06 08:11:49;;;;;;;5.00;1.80;;;17.40;99.90;;;;;;5111215;28;20069;-78
2022/10/06 08:14:15;;;;;;;6.88;1.58;;;17.40;99.90;;;;;;5111447;28;20030;-78
2022/10/06 08:16:40;;;;;;;8.00;1.70;;;17.40;99.90;;;;;;5111084;28;20028;-80
2022/10/06 08:19:06;;;;;;;4.45;1.52;;;17.40;99.90;;;;;;5104278;28;20434;-79
2022/10/06 08:21:35;;;;;;;3.42;1.50;;;17.40;99.90;;;;;;5110781;28;20015;-76
2022/10/06 08:24:01;;;;;;;3.47;1.52;;;17.30;99.90;;;;;;5111269;28;20478;-78
2022/10/06 08:26:28;;;;;;;6.95;1.65;;;17.30;99.90;;;;;;5111132;28;20161;-79
2022/10/06 08:29:01;;;;;;;7.25;2.28;;;17.30;99.90;;;;;;5106193;28;20049;-74
2022/10/06 08:31:28;;;;;;;3.90;1.73;;;17.40;99.90;;;;;;5111196;28;20016;-78
2022/10/06 08:33:55;;;;;;;2.97;1.50;;;17.40;99.90;;;;;;5110918;28;20023;-74
2022/10/06 08:36:22;;;;;;;5.85;1.33;;;17.40;99.90;;;;;;5104890;28;20373;-79
2022/10/06 08:38:51;;;;;;;2.05;1.38;;;17.40;99.90;;;;;;5110551;28;20119;-77
2022/10/06 08:41:26;;;;;;;5.32;1.48;;;17.40;99.90;;;;;;5105761;28;20094;-78
2022/10/06 08:44:06;;;;;;;7.53;1.70;;;17.40;99.90;;;;;;5110818;28;20023;-73
2022/10/06 08:46:42;;;;;;;4.05;1.45;;;17.40;99.90;;;;;;5111103;28;20035;-79
2022/10/06 08:49:17;;;;;;;5.53;1.60;;;17.50;99.90;;;;;;5113234;28;20456;-81
2022/10/06 08:51:52;;;;;;;5.60;1.65;;;17.60;99.90;;;;;;5111421;28;20042;-78
2022/10/06 08:54:29;;;;;;;5.18;1.33;;;17.50;99.90;;;;;;5111777;28;20028;-80
2022/10/06 08:57:21;;;;;;;6.47;1.08;;;17.50;99.90;;;;;;5110315;28;20511;-75
2022/10/06 08:59:50;;;;;;;5.55;1.60;;;17.60;99.90;;;;;;5111452;28;20031;-80
2022/10/06 09:02:27;;;;;;;4.70;1.20;;;17.60;99.90;;;;;;5108205;28;20024;-78
2022/10/06 09:04:56;;;;;;;6.22;1.88;;;17.60;99.90;;;;;;5108312;28;20470;-72
2022/10/06 09:07:35;;;;;;;7.22;1.77;;;17.60;99.90;;;;;;5111183;28;20030;-75
2022/10/06 09:10:36;;;;;;;6.53;1.40;;;17.70;99.90;;;;;;5113521;28;20115;-74
2022/10/06 09:13:13;;;;;;;7.22;1.42;;;17.80;99.90;;;;;;5027566;28;20029;-74
2022/10/06 09:15:45;;;;;;;5.57;1.30;;;17.90;99.90;;;;;;5087343;28;20461;-74
2022/10/06 09:18:31;;;;;;;7.00;1.55;;;17.90;99.90;;;;;;5092535;28;20067;-75
2022/10/06 09:21:00;;;;;;;5.80;1.10;;;17.90;99.90;;;;;;5102230;28;20081;-74
2022/10/06 09:23:46;;;;;;;4.63;1.38;;;18.00;99.90;;;;;;5106357;28;20016;-75
2022/10/06 09:26:15;;;;;;;6.63;1.60;;;18.00;99.90;;;;;;5105370;28;20016;-74
2022/10/06 09:28:45;;;;;;;2.05;1.00;;;18.10;99.90;;;;;;5106087;28;20075;-75
2022/10/06 09:31:38;;;;;;;5.73;1.33;;;18.20;99.90;;;;;;5105237;28;20113;-75
2022/10/06 09:34:11;;;;;;;4.90;1.50;;;18.20;99.90;;;;;;5105688;28;20127;-74
2022/10/06 09:36:58;;;;;;;3.90;1.23;;;18.20;99.90;;;;;;5101556;28;20054;-75
2022/10/06 09:39:25;;;;;;;4.97;1.60;;;18.20;99.90;;;;;;5098742;28;20019;-75
2022/10/06 09:41:53;;;;;;;6.25;1.58;;;18.30;99.90;;;;;;5106668;28;20448;-72
2022/10/06 09:44:26;;;;;;;4.95;1.33;;;18.30;99.90;;;;;;5106736;28;20038;-75
2022/10/06 09:46:52;;;;;;;3.85;1.35;;;18.30;99.90;;;;;;5103216;28;20353;-71
2022/10/06 09:49:20;;;;;;;6.90;1.50;;;18.40;99.90;;;;;;5104296;28;20043;-75
2022/10/06 09:52:00;;;;;;;7.80;2.42;;;18.60;99.90;;;;;;5102488;28;20032;-77
2022/10/06 09:54:27;;;;;;;;;;;18.60;99.90;;;;;;5108175;28;20038;-76
2022/10/06 09:56:54;;;;;;;8.38;2.08;;;18.70;99.90;;;;;;5105635;28;19935;-72
2022/10/06 09:59:33;;;;;;;4.38;1.52;;;18.70;99.90;;;;;;5106463;28;20023;-75
2022/10/06 10:02:00;;;;;;;5.03;1.95;;;18.60;99.90;;;;;;5108299;28;20019;-76
2022/10/06 10:04:31;;;;;;;4.80;1.23;;;18.70;99.90;;;;;;5110322;28;20028;-74
2022/10/06 10:07:36;;;;;;;6.07;1.60;;;18.70;99.90;;;;;;5105631;28;20104;-73
2022/10/06 10:10:21;;;;;;;6.40;1.52;;;18.70;99.90;;;;;;5030650;28;20033;-76
2022/10/06 10:12:52;;;;;;;5.10;2.20;;;18.80;99.90;;;;;;5031330;28;20026;-76
2022/10/06 10:15:17;;;;;;;4.70;1.52;;;18.80;99.90;;;;;;5023829;28;20191;-78
2022/10/06 10:18:03;;;;;;;6.10;1.33;;;18.80;99.90;;;;;;5031506;28;20654;-77
2022/10/06 10:20:51;;;;;;;5.82;1.75;;;18.70;99.90;;;;;;5030912;28;20042;-75
2022/10/06 10:23:33;;;;;;;7.70;2.25;;;18.70;99.90;;;;;;5019261;28;20064;-76
2022/10/06 10:26:03;;;;;;;8.38;2.05;;;18.70;99.90;;;;;;5030000;28;20119;-80
2022/10/06 10:28:41;;;;;;;10.63;1.80;;;18.70;99.90;;;;;;5015013;28;20061;-78
2022/10/06 10:31:06;;;;;;;13.15;1.83;;;18.70;99.90;;;;;;5022663;28;20041;-87
2022/10/06 10:33:41;;;;;;;4.40;1.50;;;18.70;99.90;;;;;;5027012;28;20035;-82
2022/10/06 10:36:11;;;;;;;4.88;2.03;;;18.60;99.90;;;;;;5023224;28;20036;-82
2022/10/06 10:38:39;;;;;;;7.75;1.38;;;18.70;99.90;;;;;;5023905;28;20061;-78
2022/10/06 10:41:27;;;;;;;3.78;1.35;;;18.70;99.90;;;;;;5077459;28;20043;-82
2022/10/06 10:44:07;;;;;;;4.70;1.40;;;18.70;99.90;;;;;;5109694;28;20023;-75
2022/10/06 10:46:43;;;;;;;5.90;1.60;;;18.70;99.90;;;;;;5116284;28;20418;-75
2022/10/06 10:49:19;;;;;;;3.45;1.30;;;18.60;99.90;;;;;;5111890;28;20048;-79
2022/10/06 10:51:52;;;;;;;5.57;1.80;;;18.60;99.90;;;;;;5103174;28;20487;-73
2022/10/06 10:54:20;;;;;;;5.10;1.38;;;18.40;99.90;;;;;;5113257;28;20023;-73
2022/10/06 10:56:48;;;;;;;6.25;1.58;;;18.40;99.90;;;;;;5108070;28;20108;-73
2022/10/06 10:59:37;;;;;;;7.05;1.92;;;18.50;99.90;;;;;;5112466;27;20023;-73
2022/10/06 11:02:17;;;;;;;5.57;1.67;;;18.60;99.90;;;;;;5110574;28;20024;-74
2022/10/06 11:04:46;;;;;;;6.68;1.70;;;18.50;99.90;;;;;;5112859;28;20118;-73
2022/10/06 11:07:12;;;;;;;6.13;1.40;;;18.40;99.90;;;;;;5111121;28;20015;-72
2022/10/06 11:09:57;;;;;;;8.48;2.00;;;18.40;99.90;;;;;;5105208;28;20084;-73
2022/10/06 11:12:39;;;;;;;5.40;1.30;;;18.30;99.90;;;;;;5107669;28;20035;-73
2022/10/06 11:15:24;;;;;;;4.45;1.40;;;18.30;99.90;;;;;;5105843;28;20023;-72
2022/10/06 11:17:52;;;;;;;6.95;1.70;;;18.30;99.90;;;;;;5109388;28;20042;-72
2022/10/06 11:20:33;;;;;;;4.55;1.20;;;18.30;99.90;;;;;;5109308;28;20024;-72
2022/10/06 11:23:17;;;;;;;3.95;1.20;;;18.40;99.90;;;;;;5112527;28;20110;-74
2022/10/06 11:25:45;;;;;;;5.55;1.30;;;18.70;99.90;;;;;;5112263;28;20019;-74
2022/10/06 11:28:30;;;;;;;8.07;2.17;;;18.90;99.90;;;;;;5112678;28;20093;-74
2022/10/06 11:31:25;;;;;;;5.78;1.58;;;19.00;99.90;;;;;;5111207;28;20385;-72
2022/10/06 11:33:57;;;;;;;7.35;1.50;;;19.00;99.90;;;;;;5103511;28;20028;-72
2022/10/06 11:36:41;;;;;;;6.68;1.63;;;19.00;99.90;;;;;;5112444;28;20467;-74
2022/10/06 11:39:37;;;;;;;7.53;1.48;;;19.00;99.90;;;;;;5111740;28;20027;-73
2022/10/06 11:42:09;;;;;;;5.22;1.20;;;19.00;99.90;;;;;;5109999;28;20050;-74
2022/10/06 11:44:46;;;;;;;5.47;1.63;;;19.00;99.90;;;;;;5112857;28;20015;-73
2022/10/06 11:47:21;;;;;;;4.88;1.40;;;19.00;99.90;;;;;;5108544;28;20069;-73
2022/10/06 11:49:57;;;;;;;5.00;1.30;;;19.10;99.90;;;;;;5112218;28;20134;-74
2022/10/06 11:52:22;;;;;;;6.07;1.38;;;19.20;99.90;;;;;;5109613;28;20495;-74
2022/10/06 11:54:50;;;;;;;5.13;1.40;;;19.60;99.90;;;;;;5111647;28;20035;-73
2022/10/06 11:57:21;;;;;;;5.07;1.30;;;20.00;99.90;;;;;;5110685;28;20412;-72
2022/10/06 11:59:54;;;;;;;3.00;1.13;;;20.20;99.90;;;;;;5111529;28;20106;-72
2022/10/06 12:02:28;;;;;;;3.95;1.42;;;20.30;99.90;;;;;;5109340;28;20031;-71
2022/10/06 12:05:17;;;;;;;6.70;1.45;;;20.50;99.90;;;;;;5109135;28;20032;-69
2022/10/06 12:07:55;;;;;;;4.55;1.25;;;20.90;99.90;;;;;;5108233;28;20041;-71
2022/10/06 12:10:27;;;;;;;10.18;1.55;;;21.60;99.60;;;;;;5111915;28;20472;-72
2022/10/06 12:13:27;;;;;;;5.25;1.23;;;21.80;98.50;;;;;;5109285;27;20028;-70
2022/10/06 12:16:12;;;;;;;9.15;1.67;;;21.60;99.00;;;;;;5098620;28;20028;-70
2022/10/06 12:18:50;;;;;;;2.30;1.33;;;21.60;99.00;;;;;;5109795;28;20032;-72
2022/10/06 12:21:34;;;;;;;5.90;1.70;;;21.80;99.20;;;;;;5099425;28;20472;-73
2022/10/06 12:24:17;;;;;;;6.95;1.35;;;22.50;97.60;;;;;;5098908;28;20024;-72
2022/10/06 12:26:42;;;;;;;7.60;1.50;;;22.80;96.60;;;;;;5110916;28;20487;-72
2022/10/06 12:29:36;;;;;;;5.65;1.52;;;22.70;96.40;;;;;;5103850;28;20027;-72
2022/10/06 12:32:21;;;;;;;6.00;1.15;;;22.20;96.40;;;;;;5096657;28;20031;-72
2022/10/06 12:35:16;;;;;;;7.15;1.70;;;21.70;97.50;;;;;;5111358;28;20115;-72
2022/10/06 12:37:51;;;;;;;5.05;1.83;;;21.10;98.30;;;;;;5111179;28;20027;-72
2022/10/06 12:40:48;;;;;;;5.25;1.40;;;20.80;98.20;;;;;;5098113;28;20078;-74
2022/10/06 12:43:17;;;;;;;13.82;2.08;;;20.50;99.00;;;;;;5110598;28;20045;-72
2022/10/06 12:45:48;;;;;;;3.17;1.20;;;20.20;99.20;;;;;;5110470;28;20019;-72
2022/10/06 12:48:30;;;;;;;7.13;1.63;;;20.10;99.30;;;;;;5109939;28;20732;-72
2022/10/06 12:51:12;;;;;;;8.18;2.00;;;20.10;99.40;;;;;;5080004;28;20406;-72
2022/10/06 12:53:54;;;;;;;6.70;1.40;;;20.10;99.70;;;;;;5090037;28;20032;-72
2022/10/06 12:56:33;;;;;;;6.05;1.00;;;20.00;99.40;;;;;;5090566;28;20043;-72
2022/10/06 12:59:18;;;;;;;6.90;0.85;;;20.00;99.70;;;;;;5090107;28;20032;-72
2022/10/06 13:01:44;;;;;;;7.03;1.25;;;19.90;99.90;;;;;;5089258;28;20028;-72
2022/10/06 13:04:39;;;;;;;6.85;1.33;;;19.90;99.90;;;;;;5089656;28;20038;-72
2022/10/06 13:07:17;;;;;;;12.68;1.88;;;19.90;99.90;;;;;;5087236;28;20016;-72
2022/10/06 13:09:43;;;;;;;7.57;2.00;;;20.00;99.90;;;;;;5083221;28;20039;-72
2022/10/06 13:12:30;;;;;;;7.15;1.38;;;19.90;99.90;;;;;;5090794;28;20115;-72
2022/10/06 13:15:08;;;;;;;6.38;1.40;;;19.80;99.90;;;;;;5089796;28;20059;-70
2022/10/06 13:17:38;;;;;;;8.48;1.73;;;19.70;99.90;;;;;;5088407;28;20028;-72
2022/10/06 13:20:04;;;;;;;6.45;1.65;;;19.50;99.90;;;;;;5085818;28;20392;-71
2022/10/06 13:22:30;;;;;;;7.45;1.83;;;19.30;99.90;;;;;;5072639;28;20347;-72
2022/10/06 13:24:59;;;;;;;7.85;1.67;;;19.20;99.90;;;;;;5087993;28;20058;-69
2022/10/06 13:27:25;;;;;;;5.10;1.48;;;19.10;99.90;;;;;;5078928;28;20077;-72
2022/10/06 13:30:11;;;;;;;12.32;1.80;;;19.10;99.90;;;;;;5087786;28;20135;-69
2022/10/06 13:32:37;;;;;;;7.78;2.35;;;19.20;99.90;;;;;;5082822;28;20118;-71